Tiempo atmosférico en la estación meteorológica de Las Palmas de Gran Canaria, San Cristobal, Las Palmas (55 m.)



Fecha
DESCASC
Temp. máxima en grados centígrados (hora)
DESCASC
Temp. mínima en grados centígrados (hora)
DESCASC
Temp. media en grados centígrados
DESCASC
Racha de viento máxima en m/sg (hora)
DESCASC
Velocidad máxima media en intervalos de 10 minutos(hora)
DESCASC
Precipitaciones diarias en mm
DESCASC
Precipitaciones de 00:00 a 06:00 en mm
DESCASC
Precipitaciones de 06:00 a 12:00 en mm
DESCASC
Precipitaciones de 12:00 a 18:00 en mm
DESCASC
Precipitaciones de 18:00 a 24:00 en mm
DESCASC
06-07-2020 24.2 (13:10) 20.6 (05:50) 22.4 15.56 (14:10) 10 (10:40) 0 0 0 0 0
05-07-2020 23 (17:10) 20.4 (03:50) 21.7 16.11 (15:10) 10.83 (19:40) 0 0 0 0 0
04-07-2020 23.2 (15:00) 20.4 (04:40) 21.8 24.17 (20:20) 8.61 (21:50) 0 0 0 0 0
03-07-2020 24.4 (16:00) 20.8 (05:40) 22.6 11.67 (19:20) 7.5 (19:20) 0 0 0 0 0
02-07-2020 23.6 (14:10) 19.9 (00:00) 21.8 14.44 (14:20) 7.5 (14:20) 0 0 0 0 0
01-07-2020 24.3 (13:40) 20.3 (00:00) 22.3 12.5 (14:50) 7.5 (15:10) 0 0 0 0 0
30-06-2020 24.5 (14:50) 20.9 (00:00) 22.7 9.72 (14:50) 5.83 (08:20) 0 0 0 0 0
29-06-2020 25.6 (15:10) 19.9 (00:00) 22.8 11.94 (14:10) 7.5 (15:50) 0 0 0 0 0
28-06-2020 23.8 (13:30) 20.3 (00:00) 22 12.78 (17:20) 7.22 (17:20) 0 0 0 0 0
27-06-2020 24.2 (16:00) 20.3 (00:00) 22.3 21.67 (14:40) 7.22 (15:20) 0 0 0 0 0
26-06-2020 24.6 (16:00) 20.8 (00:00) 22.7 10 (09:00) 6.11 (04:50) 0 0 0 0 0
25-06-2020 24.5 (13:50) 21 (00:00) 22.8 10.83 (14:00) 7.22 (14:10) 0 0 0 0 0
24-06-2020 25.1 (15:50) 21 (00:00) 23.1 12.22 (05:10) 7.22 (19:20) 0 0 0 0 0
23-06-2020 25 (15:20) 20.9 (00:00) 22.9 12.5 (15:00) 7.22 (14:10) 0 0 0 0 0
22-06-2020 24.6 (15:00) 20.6 (00:00) 22.6 13.61 (15:30) 7.78 (18:20) 0 0 0 0 0
21-06-2020 24.4 (18:30) 20.9 (00:00) 22.6 10.56 (19:10) 6.39 (18:50) 0 0 0 0 0
20-06-2020 24.9 (16:20) 20.8 (00:00) 22.8 10 (14:50) 6.11 (11:50) 0 0 0 0 0
19-06-2020 26 (14:50) 20.2 (00:00) 23.1 10 (14:30) 6.67 (21:40) 0.3 0.3 0 0 0
18-06-2020 24.7 (14:50) 21.4 (00:00) 23.1 14.17 (14:30) 9.17 (13:50) 0 0 0 0 0
17-06-2020 26.3 (12:10) 21.6 (00:00) 23.9 12.78 (01:40) 7.78 (02:10) 0 0 0 0 0
16-06-2020 28.4 (12:10) 21.4 (00:00) 24.9 9.44 (23:50) 6.67 (23:40) 0 0 0 0 0
15-06-2020 28.6 (09:30) 20.9 (00:00) 24.8 10.56 (18:50) 6.39 (18:30) 0.3 0.3 0 0 0
14-06-2020 28.5 (12:10) 20.1 (00:00) 24.3 7.22 (20:40) 5 (21:10) 0.2 0 0 0 0.2
13-06-2020 26 (12:20) 19.7 (00:00) 22.9 6.39 (19:20) 3.33 (00:40) 0 0 0 0 0
12-06-2020 23.9 (17:20) 19.8 (00:00) 21.8 10.28 (14:30) 6.39 (15:00) 0 0 0 0 0
11-06-2020 23.2 (14:20) 20.3 (00:00) 21.8 8.06 (20:50) 5 (20:10) 0 0 0 0 0
10-06-2020 24.8 (14:20) 20.5 (00:00) 22.6 8.06 (00:30) 4.72 (00:30) 0 0 0 0 0
09-06-2020 25.4 (16:10) 20.7 (00:00) 23.1 8.89 (06:30) 5.83 (11:20) 0 0 0 0 0

Gráficas

Temp. máximas Temp. mínimas Temp. medias Precipitaciones Rachas de viento máximas Velocidades máximas media en intervalos de 10 minutos

Datos horarios

Fecha y hora oficial Temperatura (ºC) Velocidad del viento (km/h) Dirección del viento Racha (km/h) Dirección de racha Precipitación (mm) Presión (hPa) Tendencia (hPa) Humedad (%)
2020-07-08 23:00:00 21.5 24 Noroeste 41 Noroeste 0 -- -- 80
2020-07-08 22:00:00 21.7 25 Noroeste 45 Noroeste 0 -- -- 80
2020-07-08 21:00:00 22.8 24 Noroeste 46 Noroeste 0 -- -- 76
2020-07-08 20:00:00 22.7 24 Noroeste 39 Noroeste 0 -- -- 73
2020-07-08 19:00:00 23.7 22 Noroeste 39 Noroeste 0 -- -- 68
2020-07-08 18:00:00 24.8 22 Noroeste 37 Noroeste 0 -- -- 68
2020-07-08 17:00:00 24.4 19 Noroeste 30 Noroeste 0 -- -- 64
2020-07-08 16:00:00 23.5 16 Noroeste 45 Noroeste 0 -- -- 70
2020-07-08 15:00:00 22.5 25 Noroeste 41 Noroeste 0 -- -- 73
2020-07-08 14:00:00 22.6 28 Norte 42 Norte 0 -- -- 74
2020-07-08 13:00:00 22.9 25 Noroeste 44 Noroeste 0 -- -- 72
2020-07-08 12:00:00 22.2 24 Noroeste 48 Noroeste 0 -- -- 73
2020-07-08 11:00:00 22.3 28 Noroeste 49 Noroeste 0 -- -- 75
2020-07-08 10:00:00 22.4 27 Noroeste 40 Noroeste 0 -- -- 75
2020-07-08 09:00:00 21.6 26 Noroeste 44 Noroeste 0 -- -- 80
2020-07-08 08:00:00 21.3 27 Noroeste 46 Noroeste 0 -- -- 83
2020-07-08 07:00:00 21.2 29 Noroeste 49 Oeste 0 -- -- 84
2020-07-08 06:00:00 21 23 Noroeste 51 Oeste 0 -- -- 84
2020-07-08 05:00:00 21.1 31 Noroeste 48 Oeste 0 -- -- 85
2020-07-08 04:00:00 21.1 22 Noroeste 47 Noroeste 0 -- -- 85
2020-07-08 03:00:00 21.3 28 Oeste 55 Noroeste 0 -- -- 85
2020-07-08 02:00:00 21.3 30 Noroeste 47 Noroeste 0 -- -- 86
2020-07-08 01:00:00 21.4 28 Noroeste 45 Noroeste 0 -- -- 85
2020-07-08 00:00:00 21.6 26 Noroeste 54 Noroeste 0 -- -- 85
2020-07-07 23:00:00 21.6 24 Noroeste 46 Noroeste 0 -- -- 85
2020-07-07 22:00:00 21.8 26 Noroeste 46 Noroeste 0 -- -- 84
2020-07-07 21:00:00 21.9 25 Noroeste 49 Noroeste 0 -- -- 83
2020-07-07 20:00:00 22.1 29 Noroeste 52 Noroeste 0 -- -- 83
2020-07-07 19:00:00 22.8 26 Noroeste 60 Noroeste 0 -- -- 81
2020-07-07 18:00:00 22.8 26 Noroeste 60 Noroeste 0 -- -- 80
2020-07-07 17:00:00 22.9 31 Noroeste 55 Noroeste 0 -- -- 79
2020-07-07 16:00:00 23.7 30 Noroeste 55 Oeste 0 -- -- 79
2020-07-07 15:00:00 23 31 Noroeste 46 Noroeste 0 -- -- 79
2020-07-07 14:00:00 22.8 30 Noroeste 44 Noroeste 0 -- -- 81
2020-07-07 13:00:00 22.4 30 Noroeste 47 Noroeste 0 -- -- 83
2020-07-07 12:00:00 22.9 24 Noroeste 48 Noroeste 0 -- -- 81
2020-07-07 11:00:00 22 30 Noroeste 51 Noroeste 0 -- -- 83
2020-07-07 10:00:00 21.8 23 Noroeste 42 Noroeste 0 -- -- 84
2020-07-07 09:00:00 21.5 19 Noroeste 41 Norte 0 -- -- 86
2020-07-07 08:00:00 21.2 30 Noroeste 44 Noroeste 0 -- -- 86
2020-07-07 07:00:00 21.3 26 Noroeste 43 Oeste 0 -- -- 86
2020-07-07 06:00:00 21.4 28 Noroeste 47 Noroeste 0 -- -- 85
2020-07-07 05:00:00 21.7 15 Noroeste 49 Noroeste 0 -- -- 85
2020-07-07 04:00:00 21.5 28 Noroeste 51 Noroeste 0 -- -- 85
2020-07-07 03:00:00 21.5 31 Noroeste 49 Noroeste 0 -- -- 85
2020-07-07 02:00:00 21.5 27 Noroeste 49 Noroeste 0 -- -- 84
2020-07-07 01:00:00 21.7 33 Noroeste 51 Noroeste 0 -- -- 84
2020-07-07 00:00:00 21.7 27 Noroeste 45 Noroeste 0 -- -- 84
2020-07-06 23:00:00 21.7 26 Noroeste 42 Noroeste 0 -- -- 84
2020-07-06 22:00:00 21.8 26 Noroeste 40 Noroeste 0 -- -- 83
2020-07-06 21:00:00 21.9 26 Noroeste 45 Noroeste 0 -- -- 83
2020-07-06 20:00:00 22.1 28 Noroeste 46 Noroeste 0 -- -- 81
2020-07-06 19:00:00 22.2 26 Noroeste 48 Noroeste 0 -- -- 81
2020-07-06 18:00:00 23.4 27 Noroeste 49 Noroeste 0 -- -- 78
2020-07-06 17:00:00 22.9 26 Noroeste 49 Noroeste 0 -- -- 78
2020-07-06 16:00:00 22.8 27 Noroeste 49 Noroeste 0 -- -- 77
2020-07-06 15:00:00 23.7 27 Noroeste 56 Noroeste 0 -- -- 75
2020-07-06 14:00:00 22.7 30 Noroeste 51 Noroeste 0 -- -- 77
2020-07-06 13:00:00 23.8 19 Noroeste 45 Noroeste 0 -- -- 75
2020-07-06 12:00:00 22.2 28 Noroeste 47 Noroeste 0 -- -- 80
2020-07-06 11:00:00 21.9 27 Noroeste 54 Noroeste 0 -- -- 82
2020-07-06 10:00:00 21.8 32 Noroeste 48 Oeste 0 -- -- 81
2020-07-06 09:00:00 21.5 29 Noroeste 49 Noroeste 0 -- -- 83
2020-07-06 08:00:00 21 28 Noroeste 47 Noroeste 0 -- -- 84
2020-07-06 07:00:00 21 23 Noroeste 45 Noroeste 0 -- -- 83
2020-07-06 06:00:00 21.2 30 Noroeste 47 Noroeste 0 -- -- 81
2020-07-06 05:00:00 21.2 26 Noroeste 42 Noroeste 0 -- -- 80
2020-07-06 04:00:00 22.4 22 Noroeste 41 Noroeste 0 -- -- 64
2020-07-06 03:00:00 23 17 Oeste 37 Noroeste 0 -- -- 62
2020-07-06 02:00:00 22.9 14 Noroeste 42 Oeste 0 -- -- 64
2020-07-06 01:00:00 21.4 25 Oeste 41 Noroeste 0 -- -- 79
2020-07-06 00:00:00 21.3 19 Noroeste 43 Noroeste 0 -- -- 80
2020-07-05 23:00:00 21.5 22 Noroeste 48 Oeste 0 -- -- 79
2020-07-05 22:00:00 21.4 29 Noroeste 50 Noroeste 0 -- -- 79
2020-07-05 21:00:00 21.5 30 Noroeste 47 Noroeste 0 -- -- 80
2020-07-05 20:00:00 21.6 30 Noroeste 57 Noroeste 0 -- -- 78
2020-07-05 19:00:00 21.7 32 Noroeste 56 Noroeste 0 -- -- 77
2020-07-05 18:00:00 22.2 26 Noroeste 55 Noroeste 0 -- -- 74
2020-07-05 17:00:00 22.2 30 Noroeste 57 Noroeste 0 -- -- 74
2020-07-05 16:00:00 21.7 37 Noroeste 58 Noroeste 0 -- -- 75
2020-07-05 15:00:00 21.9 33 Noroeste 55 Noroeste 0 -- -- 74
2020-07-05 14:00:00 22.2 28 Noroeste 51 Noroeste 0 -- -- 74
2020-07-05 13:00:00 22.2 30 Noroeste 54 Noroeste 0 -- -- 72
2020-07-05 12:00:00 21.5 31 Noroeste 48 Noroeste 0 -- -- 73
2020-07-05 11:00:00 21.6 25 Noroeste 48 Noroeste 0 -- -- 72
2020-07-05 10:00:00 20.9 25 Noroeste 42 Noroeste 0 -- -- 73
2020-07-05 09:00:00 20.9 23 Noroeste 42 Noroeste 0 -- -- 73
2020-07-05 08:00:00 20.6 24 Noroeste 36 Noroeste 0 -- -- 74
2020-07-05 07:00:00 20.5 18 Noroeste 43 Noroeste 0 -- -- 73
2020-07-05 06:00:00 20.4 23 Noroeste 38 Noroeste 0 -- -- 73
2020-07-05 05:00:00 20.6 21 Noroeste 39 Oeste 0 -- -- 72
2020-07-05 04:00:00 20.6 25 Noroeste 44 Noroeste 0 -- -- 73
2020-07-05 03:00:00 20.6 21 Noroeste 42 Oeste 0 -- -- 73
2020-07-05 02:00:00 20.6 21 Noroeste 40 Noroeste 0 -- -- 73
2020-07-05 01:00:00 20.8 22 Noroeste 42 Noroeste 0 -- -- 73
2020-07-05 00:00:00 20.7 25 Noroeste 44 Noroeste 0 -- -- 73
2020-07-04 23:00:00 20.8 28 Noroeste 48 Oeste 0 -- -- 73
2020-07-04 22:00:00 20.8 24 Noroeste 44 Norte 0 -- -- 72
2020-07-04 21:00:00 21.1 24 Noroeste 87 Noroeste 0 -- -- 72
2020-07-04 20:00:00 21.2 25 Noroeste 42 Noroeste 0 -- -- 74
2020-07-04 19:00:00 21.6 21 Noroeste 44 Noroeste 0 -- -- 68
2020-07-04 18:00:00 21.8 20 Noroeste 37 Noroeste 0 -- -- 68
2020-07-04 17:00:00 21.4 21 Noroeste 39 Noroeste 0 -- -- 69
2020-07-04 16:00:00 21.8 21 Noroeste 39 Noroeste 0 -- -- 67
2020-07-04 15:00:00 21.6 19 Norte 45 Norte 0 -- -- 68
2020-07-04 14:00:00 21.5 21 Norte 35 Norte 0 -- -- 69
2020-07-04 13:00:00 21.5 24 Norte 36 Norte 0 -- -- 70
2020-07-04 12:00:00 21 27 Norte 35 Norte 0 -- -- 72
2020-07-04 11:00:00 20.9 21 Noroeste 34 Norte 0 -- -- 71
2020-07-04 10:00:00 20.8 20 Norte 40 Noroeste 0 -- -- 72
2020-07-04 09:00:00 20.6 20 Norte 38 Noroeste 0 -- -- 73
2020-07-04 08:00:00 20.5 21 Noroeste 36 Noroeste 0 -- -- 74
2020-07-04 07:00:00 20.5 18 Noroeste 36 Noroeste 0 -- -- 74
2020-07-04 06:00:00 20.6 18 Noroeste 35 Noroeste 0 -- -- 73
2020-07-04 05:00:00 20.5 21 Noroeste 35 Noroeste 0 -- -- 75
2020-07-04 04:00:00 20.6 20 Norte 36 Oeste 0 -- -- 75
2020-07-04 03:00:00 20.8 16 Noroeste 33 Noroeste 0 -- -- 74
2020-07-04 02:00:00 20.9 17 Noroeste 36 Noroeste 0 -- -- 74
2020-07-04 01:00:00 21.1 17 Noroeste 35 Norte 0 -- -- 74
2020-07-04 00:00:00 21 23 Norte 38 Noroeste 0 -- -- 74
2020-07-03 23:00:00 21 23 Noroeste 42 Noroeste 0 -- -- 75
2020-07-03 22:00:00 21.2 21 Noroeste 41 Noroeste 0 -- -- 75
2020-07-03 21:00:00 21.5 20 Noroeste 42 Noroeste 0 -- -- 73
2020-07-03 20:00:00 21.7 21 Noroeste 42 Noroeste 0 -- -- 73
2020-07-03 19:00:00 21.7 25 Noroeste 41 Noroeste 0 -- -- 73
2020-07-03 18:00:00 22.7 20 Noroeste 40 Noroeste 0 -- -- 71
2020-07-03 17:00:00 22.5 19 Noroeste 39 Noroeste 0 -- -- 70
2020-07-03 16:00:00 23.1 19 Noroeste 37 Norte 0 -- -- 68
2020-07-03 15:00:00 22.7 18 Norte 39 Noroeste 0 -- -- 72
2020-07-03 14:00:00 23.4 18 Norte 36 Norte 0 -- -- 70
2020-07-03 13:00:00 22.9 23 Norte 39 Norte 0 -- -- 70
2020-07-03 12:00:00 22.8 16 Noroeste 32 Norte 0 -- -- 72
2020-07-03 11:00:00 21.9 21 Norte 35 Norte 0 -- -- 72
2020-07-03 10:00:00 22.2 17 Noroeste 32 Noroeste 0 -- -- 73
2020-07-03 09:00:00 21.3 17 Noroeste 33 Noroeste 0 -- -- 76
2020-07-03 08:00:00 21.6 19 Noroeste 32 Noroeste 0 -- -- 76
2020-07-03 07:00:00 20.9 19 Noroeste 41 Noroeste 0 -- -- 78
2020-07-03 06:00:00 21.1 19 Noroeste 35 Noroeste 0 -- -- 77
2020-07-03 05:00:00 21 19 Noroeste 34 Noroeste 0 -- -- 76
2020-07-03 04:00:00 21.1 18 Noroeste 35 Noroeste 0 -- -- 78
2020-07-03 03:00:00 21.3 17 Noroeste 35 Noroeste 0 -- -- 77
2020-07-03 02:00:00 21.3 18 Noroeste 35 Noroeste 0 -- -- 77
2020-07-03 01:00:00 21.4 19 Noroeste 35 Noroeste 0 -- -- 78
2020-07-03 00:00:00 21.5 22 Noroeste 36 Noroeste 0 -- -- 75
2020-07-02 23:00:00 21.6 19 Noroeste 36 Noroeste 0 -- -- 74
2020-07-02 22:00:00 21.7 19 Noroeste 34 Noroeste 0 -- -- 74
2020-07-02 21:00:00 21.7 19 Norte 35 Norte 0 -- -- 75
2020-07-02 20:00:00 22 16 Noroeste 40 Noroeste 0 -- -- 74
2020-07-02 19:00:00 22.2 17 Noroeste 37 Noroeste 0 -- -- 74
2020-07-02 18:00:00 22 19 Noroeste 42 Noroeste 0 -- -- 73
2020-07-02 17:00:00 21.9 24 Noroeste 43 Noroeste 0 -- -- 74
2020-07-02 16:00:00 22.2 24 Norte 39 Norte 0 -- -- 70
2020-07-02 15:00:00 22.6 16 Norte 52 Noroeste 0 -- -- 69
2020-07-02 14:00:00 22.4 21 Noroeste 40 Noroeste 0 -- -- 70
2020-07-02 13:00:00 21.8 19 Norte 28 Norte 0 -- -- 74
2020-07-02 12:00:00 22.4 16 Noroeste 36 Noroeste 0 -- -- 70
2020-07-02 11:00:00 21.7 26 Noroeste 36 Noroeste 0 -- -- 73
2020-07-02 10:00:00 21.5 19 Norte 35 Norte 0 -- -- 74
2020-07-02 09:00:00 21.3 20 Norte 37 Noroeste 0 -- -- 74
2020-07-02 08:00:00 21.2 26 Noroeste 39 Noroeste 0 -- -- 75
2020-07-02 07:00:00 20.9 22 Noroeste 34 Noroeste 0 -- -- 75
2020-07-02 06:00:00 20.9 19 Noroeste 34 Norte 0 -- -- 76
2020-07-02 05:00:00 20.4 22 Noroeste 42 Noroeste 0 -- -- 85
2020-07-02 04:00:00 20.6 20 Noroeste 35 Noroeste 0 -- -- 81
2020-07-02 03:00:00 21.1 17 Noroeste 30 Noroeste 0 -- -- 75
2020-07-02 02:00:00 21.1 18 Norte 40 Noroeste 0 -- -- 76
2020-07-02 01:00:00 21.2 20 Noroeste 38 Noroeste 0 -- -- 75
2020-07-02 00:00:00 21.6 22 Noroeste 35 Norte 0 -- -- 74
2020-07-01 23:00:00 21.8 19 Noroeste 40 Noroeste 0 -- -- 73
2020-07-01 22:00:00 21.5 23 Noroeste 38 Noroeste 0 -- -- 73
2020-07-01 21:00:00 21.7 20 Noroeste 39 Noroeste 0 -- -- 73
2020-07-01 20:00:00 22.4 18 Noroeste 40 Oeste 0 -- -- 72
2020-07-01 19:00:00 21.9 21 Noroeste 35 Noroeste 0 -- -- 73
2020-07-01 18:00:00 23.1 18 Norte 30 Norte 0 -- -- 70
2020-07-01 17:00:00 22.5 14 Norte 39 Noroeste 0 -- -- 70
2020-07-01 16:00:00 23.6 21 Noroeste 42 Noroeste 0 -- -- 67
2020-07-01 15:00:00 22.5 25 Noroeste 45 Noroeste 0 -- -- 70
2020-07-01 14:00:00 22.7 25 Noroeste 44 Noroeste 0 -- -- 69
2020-07-01 13:00:00 22.2 21 Noroeste 38 Noroeste 0 -- -- 70
2020-07-01 12:00:00 21.9 22 Noroeste 36 Noroeste 0 -- -- 69
2020-07-01 11:00:00 22.4 19 Noroeste 37 Noroeste 0 -- -- 71
2020-07-01 10:00:00 21.3 15 Noroeste 29 Norte 0 -- -- 72
2020-07-01 09:00:00 20.9 15 Noroeste 30 Noroeste 0 -- -- 76
2020-07-01 08:00:00 21.1 13 Noroeste 27 Norte 0 -- -- 73
2020-07-01 07:00:00 20.9 18 Norte 30 Norte 0 -- -- 74
2020-07-01 06:00:00 20.9 13 Noroeste 28 Noroeste 0 -- -- 75
2020-07-01 05:00:00 20.9 16 Norte 26 Norte 0 -- -- 74
2020-07-01 04:00:00 20.9 18 Norte 29 Norte 0 -- -- 73
2020-07-01 03:00:00 20.9 20 Noroeste 32 Noroeste 0 -- -- 75
2020-07-01 02:00:00 21.3 13 Noroeste 28 Noroeste 0 -- -- 73
2020-07-01 01:00:00 21.2 19 Norte 32 Norte 0 -- -- 72
2020-07-01 00:00:00 21.4 15 Noroeste 33 Noroeste 0 -- -- 72
2020-06-30 23:00:00 21.4 15 Norte 29 Norte 0 -- -- 72
2020-06-30 22:00:00 21.6 18 Noroeste 32 Noroeste 0 -- -- 72
2020-06-30 21:00:00 21.6 16 Noroeste 30 Norte 0 -- -- 76
2020-06-30 20:00:00 21.8 18 Norte 32 Noroeste 0 -- -- 73
2020-06-30 19:00:00 22.4 14 Norte 26 Noroeste 0 -- -- 73
2020-06-30 18:00:00 22 17 Norte 29 Norte 0 -- -- 73
2020-06-30 17:00:00 22.2 16 Norte 28 Norte 0 -- -- 70
2020-06-30 16:00:00 22.2 15 Norte 30 Nordeste 0 -- -- 72
2020-06-30 15:00:00 24 14 Noroeste 35 Noroeste 0 -- -- 69
2020-06-30 14:00:00 23 17 Norte 33 Norte 0 -- -- 69
2020-06-30 13:00:00 22.6 13 Norte 30 Norte 0 -- -- 69
2020-06-30 12:00:00 23 20 Norte 30 Norte 0 -- -- 69
2020-06-30 11:00:00 21.9 17 Norte 30 Norte 0 -- -- 75
2020-06-30 10:00:00 21 17 Norte 30 Norte 0 -- -- 78
2020-06-30 09:00:00 21.3 17 Norte 28 Noroeste 0 -- -- 79
2020-06-30 08:00:00 21.3 13 Noroeste 26 Noroeste 0 -- -- 79
2020-06-30 07:00:00 21.8 13 Noroeste 32 Norte 0 -- -- 71
2020-06-30 06:00:00 21.2 17 Noroeste 27 Norte 0 -- -- 75
2020-06-30 05:00:00 21.3 15 Noroeste 27 Norte 0 -- -- 74
2020-06-30 04:00:00 21.2 15 Noroeste 30 Noroeste 0 -- -- 74
2020-06-30 03:00:00 21.6 14 Noroeste 30 Oeste 0 -- -- 74
2020-06-30 02:00:00 21.4 17 Noroeste 33 Noroeste 0 -- -- 75
2020-06-30 01:00:00 21.5 17 Noroeste 33 Noroeste 0 -- -- 74
2020-06-30 00:00:00 21.9 17 Noroeste 35 Noroeste 0 -- -- 67
2020-06-29 23:00:00 22 18 Noroeste 35 Noroeste 0 -- -- 67
2020-06-29 22:00:00 22 21 Noroeste 33 Noroeste 0 -- -- 73
2020-06-29 21:00:00 21.7 23 Noroeste 42 Noroeste 0 -- -- 79
2020-06-29 20:00:00 22 18 Noroeste 34 Noroeste 0 -- -- 75
2020-06-29 19:00:00 21.9 22 Noroeste 36 Noroeste 0 -- -- 77
2020-06-29 18:00:00 22.6 19 Noroeste 36 Noroeste 0 -- -- 72
2020-06-29 17:00:00 22 18 Noroeste 40 Noroeste 0 -- -- 78
2020-06-29 16:00:00 22.9 24 Noroeste 39 Noroeste 0 -- -- 72
2020-06-29 15:00:00 22.9 20 Norte 43 Norte 0 -- -- 68
2020-06-29 14:00:00 22.5 17 Norte 33 Noroeste 0 -- -- 70
2020-06-29 13:00:00 22.3 15 Norte 37 Norte 0 -- -- 70
2020-06-29 12:00:00 22.3 18 Norte 37 Noroeste 0 -- -- 72
2020-06-29 11:00:00 19.9 22 Norte 40 Norte 0 -- -- 81
2020-06-29 10:00:00 20.7 18 Norte 35 Noroeste 0 -- -- 80
2020-06-29 09:00:00 21.2 18 Noroeste 33 Noroeste 0 -- -- 75
2020-06-29 08:00:00 21.1 19 Noroeste 31 Noroeste 0 -- -- 79
2020-06-29 07:00:00 20.9 16 Noroeste 34 Noroeste 0 -- -- 78
2020-06-29 06:00:00 20.6 25 Noroeste 37 Noroeste 0 -- -- 79
2020-06-29 05:00:00 21.4 15 Noroeste 30 Noroeste 0 -- -- 75
2020-06-29 04:00:00 20.6 19 Norte 35 Noroeste 0 -- -- 78
2020-06-29 03:00:00 21.6 22 Noroeste 34 Noroeste 0 -- -- 70
2020-06-29 02:00:00 21.7 19 Noroeste 38 Norte 0 -- -- 70
2020-06-29 01:00:00 21.2 18 Noroeste 34 Noroeste 0 -- -- 78
2020-06-29 00:00:00 21.5 15 Noroeste 36 Noroeste 0 -- -- 77
2020-06-28 23:00:00 21.8 19 Noroeste 39 Noroeste 0 -- -- 73
2020-06-28 22:00:00 22 18 Noroeste 35 Noroeste 0 -- -- 70
2020-06-28 21:00:00 22 14 Noroeste 37 Norte 0 -- -- 73
2020-06-28 20:00:00 22.7 23 Norte 38 Noroeste 0 -- -- 70
2020-06-28 19:00:00 22.6 18 Noroeste 38 Noroeste 0 -- -- 68
2020-06-28 18:00:00 22.4 23 Noroeste 46 Noroeste 0 -- -- 69
2020-06-28 17:00:00 22.3 23 Noroeste 39 Noroeste 0 -- -- 69
2020-06-28 16:00:00 23 20 Noroeste 36 Norte 0 -- -- 67
2020-06-28 15:00:00 22.8 17 Noroeste 37 Noroeste 0 -- -- 67
2020-06-28 14:00:00 21.9 22 Noroeste 37 Noroeste 0 -- -- 70
2020-06-28 13:00:00 22.1 16 Noroeste 35 Norte 0 -- -- 69
2020-06-28 12:00:00 21.1 19 Norte 35 Norte 0 -- -- 74
2020-06-28 11:00:00 21.8 13 Norte 30 Noroeste 0 -- -- 68
2020-06-28 10:00:00 21.4 21 Norte 31 Norte 0 -- -- 67
2020-06-28 09:00:00 21.7 14 Norte 31 Norte 0 -- -- 67
2020-06-28 08:00:00 21.5 14 Norte 32 Noroeste 0 -- -- 67
2020-06-28 07:00:00 21.6 18 Noroeste 31 Noroeste 0 -- -- 65
2020-06-28 06:00:00 21.5 20 Norte 30 Norte 0 -- -- 66
2020-06-28 05:00:00 21.5 15 Noroeste 29 Norte 0 -- -- 66
2020-06-28 04:00:00 21.4 16 Norte 31 Norte 0 -- -- 68
2020-06-28 03:00:00 21.6 15 Norte 26 Norte 0 -- -- 67
2020-06-28 02:00:00 21.6 16 Norte 30 Norte 0 -- -- 67
2020-06-28 01:00:00 21.7 14 Norte 30 Norte 0 -- -- 69
2020-06-28 00:00:00 21.6 14 Norte 27 Norte 0 -- -- 67
2020-06-27 23:00:00 21.6 14 Noroeste 26 Norte 0 -- -- 67
2020-06-27 22:00:00 21.9 18 Noroeste 31 Noroeste 0 -- -- 64
2020-06-27 21:00:00 22 15 Noroeste 33 Noroeste 0 -- -- 64
2020-06-27 20:00:00 22.6 15 Norte 37 Norte 0 -- -- 64
2020-06-27 19:00:00 22 15 Norte 36 Norte 0 -- -- 64
2020-06-27 18:00:00 21.8 21 Norte 37 Noroeste 0 -- -- 64
2020-06-27 17:00:00 22.5 15 Noroeste 36 Noroeste 0 -- -- 61
2020-06-27 16:00:00 22 18 Norte 36 Noroeste 0 -- -- 59
2020-06-27 15:00:00 23 17 Norte 78 Norte 0 -- -- 62
2020-06-27 14:00:00 22.5 17 Norte 32 Norte 0 -- -- 59
2020-06-27 13:00:00 21.9 18 Norte 31 Norte 0 -- -- 61
2020-06-27 12:00:00 21.5 17 Norte 30 Norte 0 -- -- 63
2020-06-27 11:00:00 20.8 17 Norte 32 Noroeste 0 -- -- 63
2020-06-27 10:00:00 20.8 15 Norte 31 Norte 0 -- -- 64
2020-06-27 09:00:00 20.5 22 Norte 32 Norte 0 -- -- 66
2020-06-27 08:00:00 20.5 17 Norte 32 Norte 0 -- -- 64
2020-06-27 07:00:00 20.4 19 Noroeste 30 Noroeste 0 -- -- 65
2020-06-27 06:00:00 20.6 19 Noroeste 33 Noroeste 0 -- -- 66
2020-06-27 05:00:00 20.4 20 Noroeste 30 Noroeste 0 -- -- 66
2020-06-27 04:00:00 20.9 19 Noroeste 38 Noroeste 0 -- -- 67
2020-06-27 03:00:00 20.8 19 Norte 30 Noroeste 0 -- -- 67
2020-06-27 02:00:00 21.2 14 Norte 32 Norte 0 -- -- 65
2020-06-27 01:00:00 21.2 14 Noroeste 30 Noroeste 0 -- -- 66
2020-06-27 00:00:00 21.3 17 Norte 28 Noroeste 0 -- -- 66
2020-06-26 23:00:00 21.4 17 Noroeste 32 Norte 0 -- -- 67
2020-06-26 22:00:00 22.9 13 Norte 27 Norte 0 -- -- 66
2020-06-26 21:00:00 21.4 19 Norte 30 Norte 0 -- -- 67
2020-06-26 20:00:00 21.6 18 Norte 31 Norte 0 -- -- 72
2020-06-26 19:00:00 21.9 19 Norte 32 Norte 0 -- -- 68
2020-06-26 18:00:00 22.1 19 Norte 33 Norte 0 -- -- 68
2020-06-26 17:00:00 22.2 17 Norte 33 Norte 0 -- -- 68
2020-06-26 16:00:00 22.6 14 Norte 35 Norte 0 -- -- 64
2020-06-26 15:00:00 23.1 18 Norte 35 Norte 0 -- -- 63
2020-06-26 14:00:00 22.8 18 Norte 35 Nordeste 0 -- -- 64
2020-06-26 13:00:00 21.8 19 Norte 35 Norte 0 -- -- 64
2020-06-26 12:00:00 23.1 12 Norte 27 Norte 0 -- -- 61
2020-06-26 11:00:00 21.6 18 Norte 33 Norte 0 -- -- 61
2020-06-26 10:00:00 21.6 18 Norte 32 Norte 0 -- -- 62
2020-06-26 09:00:00 21.3 18 Norte 36 Norte 0 -- -- 62
2020-06-26 08:00:00 20.9 22 Noroeste 33 Norte 0 -- -- 65
2020-06-26 07:00:00 21.1 18 Norte 32 Norte 0 -- -- 66
2020-06-26 06:00:00 21.1 18 Noroeste 32 Noroeste 0 -- -- 72
2020-06-26 05:00:00 21.2 19 Noroeste 32 Norte 0 -- -- 72
2020-06-26 04:00:00 21.1 14 Noroeste 25 Noroeste 0 -- -- 72
2020-06-26 03:00:00 21.1 15 Noroeste 30 Norte 0 -- -- 69
2020-06-26 02:00:00 21.2 14 Noroeste 28 Norte 0 -- -- 69
2020-06-26 01:00:00 22 18 Norte 32 Noroeste 0 -- -- 69
2020-06-26 00:00:00 21.7 18 Noroeste 30 Norte 0 -- -- 65
2020-06-25 23:00:00 21.5 19 Noroeste 33 Noroeste 0 -- -- 72
2020-06-25 22:00:00 21.6 17 Noroeste 33 Noroeste 0 -- -- 69
2020-06-25 21:00:00 21.8 19 Norte 34 Noroeste 0 -- -- 68
2020-06-25 20:00:00 22.1 12 Norte 32 Noroeste 0 -- -- 69
2020-06-25 19:00:00 22.2 15 Noroeste 30 Noroeste 0 -- -- 64
2020-06-25 18:00:00 22.4 19 Norte 32 Norte 0 -- -- 64
2020-06-25 17:00:00 22.6 14 Noroeste 32 Norte 0 -- -- 63
2020-06-25 16:00:00 22.6 17 Norte 37 Noroeste 0 -- -- 62
2020-06-25 15:00:00 22.2 17 Noroeste 38 Norte 0 -- -- 61
2020-06-25 14:00:00 23 20 Noroeste 39 Noroeste 0 -- -- 61
2020-06-25 13:00:00 22.2 17 Norte 33 Noroeste 0 -- -- 63
2020-06-25 12:00:00 22 15 Norte 32 Noroeste 0 -- -- 67
2020-06-25 11:00:00 21.8 21 Norte 31 Noroeste 0 -- -- 63
2020-06-25 10:00:00 21.4 17 Norte 29 Noroeste 0 -- -- 68
2020-06-25 09:00:00 21.5 16 Norte 32 Norte 0 -- -- 63
2020-06-25 08:00:00 21.2 21 Norte 31 Norte 0 -- -- 69
2020-06-25 07:00:00 21.4 19 Noroeste 30 Noroeste 0 -- -- 67
2020-06-25 06:00:00 21.6 17 Noroeste 33 Noroeste 0 -- -- 63
2020-06-25 05:00:00 21.4 18 Noroeste 30 Norte 0 -- -- 68
2020-06-25 04:00:00 21.3 17 Norte 28 Norte 0 -- -- 68
2020-06-25 03:00:00 21.5 18 Noroeste 32 Noroeste 0 -- -- 67
2020-06-25 02:00:00 21.5 18 Noroeste 33 Norte 0 -- -- 67
2020-06-25 01:00:00 21.6 16 Noroeste 34 Noroeste 0 -- -- 69
2020-06-25 00:00:00 21.6 18 Noroeste 37 Norte 0 -- -- 69
2020-06-24 23:00:00 21.6 19 Noroeste 36 Norte 0 -- -- 71
2020-06-24 22:00:00 21.8 20 Noroeste 38 Noroeste 0 -- -- 68
2020-06-24 21:00:00 21.9 21 Noroeste 40 Norte 0 -- -- 68
2020-06-24 20:00:00 22.2 17 Noroeste 37 Norte 0 -- -- 67
2020-06-24 19:00:00 22.5 19 Noroeste 41 Noroeste 0 -- -- 64
2020-06-24 18:00:00 23.1 19 Noroeste 35 Noroeste 0 -- -- 64
2020-06-24 17:00:00 22.9 17 Noroeste 42 Noroeste 0 -- -- 62
2020-06-24 16:00:00 23.3 14 Noroeste 39 Norte 0 -- -- 59
2020-06-24 15:00:00 22.7 19 Noroeste 37 Norte 0 -- -- 64
2020-06-24 14:00:00 22 18 Norte 39 Noroeste 0 -- -- 67
2020-06-24 13:00:00 22.3 23 Noroeste 37 Norte 0 -- -- 62
2020-06-24 12:00:00 22.3 22 Noroeste 33 Norte 0 -- -- 62
2020-06-24 11:00:00 22.7 21 Noroeste 39 Noroeste 0 -- -- 64
2020-06-24 10:00:00 21.5 21 Noroeste 36 Norte 0 -- -- 64
2020-06-24 09:00:00 21.2 23 Norte 36 Noroeste 0 -- -- 64
2020-06-24 08:00:00 21.1 19 Noroeste 38 Noroeste 0 -- -- 66
2020-06-24 07:00:00 21.1 18 Noroeste 35 Norte 0 -- -- 67
2020-06-24 06:00:00 21.2 17 Noroeste 44 Noroeste 0 -- -- 66
2020-06-24 05:00:00 21.3 22 Noroeste 36 Noroeste 0 -- -- 65
2020-06-24 04:00:00 21.2 18 Norte 37 Noroeste 0 -- -- 66
2020-06-24 03:00:00 21.3 20 Noroeste 39 Noroeste 0 -- -- 67
2020-06-24 02:00:00 21.5 20 Noroeste 37 Noroeste 0 -- -- 66
2020-06-24 01:00:00 21.5 10 Noroeste 32 Norte 0 -- -- 67
2020-06-24 00:00:00 21.5 19 Norte 32 Norte 0 -- -- 66
2020-06-23 23:00:00 21.6 15 Noroeste 28 Noroeste 0 -- -- 67
2020-06-23 22:00:00 22.1 18 Norte 28 Norte 0 -- -- 66
2020-06-23 21:00:00 21.6 17 Noroeste 32 Noroeste 0 -- -- 67
2020-06-23 20:00:00 21.6 19 Norte 35 Norte 0 -- -- 68
2020-06-23 19:00:00 21.9 18 Norte 32 Norte 0 -- -- 64
2020-06-23 18:00:00 21.7 19 Norte 35 Norte 0 -- -- 67
2020-06-23 17:00:00 22.6 19 Norte 42 Noroeste 0 -- -- 63
2020-06-23 16:00:00 23.3 23 Norte 42 Noroeste 0 -- -- 62
2020-06-23 15:00:00 24.6 22 Noroeste 45 Noroeste 0 -- -- 61
2020-06-23 14:00:00 23.1 21 Noroeste 37 Oeste 0 -- -- 66
2020-06-23 13:00:00 22.6 21 Noroeste 41 Noroeste 0 -- -- 67
2020-06-23 12:00:00 22.6 21 Norte 40 Noroeste 0 -- -- 62
2020-06-23 11:00:00 21.8 23 Noroeste 37 Noroeste 0 -- -- 65
2020-06-23 10:00:00 21.7 17 Noroeste 36 Noroeste 0 -- -- 66
2020-06-23 09:00:00 21.9 20 Noroeste 33 Noroeste 0 -- -- 66
2020-06-23 08:00:00 21.1 15 Noroeste 33 Norte 0 -- -- 67
2020-06-23 07:00:00 21.3 15 Noroeste 31 Noroeste 0 -- -- 67
2020-06-23 06:00:00 21 19 Norte 30 Norte 0 -- -- 67
2020-06-23 05:00:00 21.2 17 Noroeste 30 Norte 0 -- -- 67
2020-06-23 04:00:00 21.3 14 Noroeste 34 Noroeste 0 -- -- 67
2020-06-23 03:00:00 21.4 19 Noroeste 30 Noroeste 0 -- -- 69
2020-06-23 02:00:00 21.3 20 Noroeste 33 Noroeste 0 -- -- 68
2020-06-23 01:00:00 21.3 15 Noroeste 31 Noroeste 0 -- -- 68
2020-06-23 00:00:00 21.5 13 Noroeste 30 Noroeste 0 -- -- 68
2020-06-22 23:00:00 21.4 20 Noroeste 35 Noroeste 0 -- -- 68
2020-06-22 22:00:00 22.5 23 Noroeste 42 Noroeste 0 -- -- 68
2020-06-22 21:00:00 21.5 22 Noroeste 41 Noroeste 0 -- -- 68
2020-06-22 20:00:00 21.7 21 Noroeste 43 Noroeste 0 -- -- 67
2020-06-22 19:00:00 22.2 23 Norte 44 Oeste 0 -- -- 68
2020-06-22 18:00:00 21.9 23 Noroeste 42 Noroeste 0 -- -- 67
2020-06-22 17:00:00 22.8 23 Noroeste 40 Noroeste 0 -- -- 64
2020-06-22 16:00:00 24.6 23 Noroeste 49 Noroeste 0 -- -- 63
2020-06-22 15:00:00 23.1 18 Noroeste 44 Noroeste 0 -- -- 63
2020-06-22 14:00:00 22.3 21 Noroeste 36 Noroeste 0 -- -- 64
2020-06-22 13:00:00 22 22 Noroeste 37 Norte 0 -- -- 65
2020-06-22 12:00:00 21.8 21 Noroeste 37 Noroeste 0 -- -- 68
2020-06-22 11:00:00 21.9 17 Norte 32 Noroeste 0 -- -- 67
2020-06-22 10:00:00 21.3 15 Noroeste 33 Noroeste 0 -- -- 69
2020-06-22 09:00:00 20.9 19 Noroeste 33 Noroeste 0 -- -- 72
2020-06-22 08:00:00 20.6 17 Noroeste 31 Noroeste 0 -- -- 72
2020-06-22 07:00:00 20.8 15 Noroeste 33 Norte 0 -- -- 70
2020-06-22 06:00:00 20.8 16 Noroeste 34 Norte 0 -- -- 70
2020-06-22 05:00:00 21 18 Noroeste 30 Noroeste 0 -- -- 72
2020-06-22 04:00:00 21.1 19 Noroeste 28 Noroeste 0 -- -- 70
2020-06-22 03:00:00 21.3 16 Norte 26 Noroeste 0 -- -- 70
2020-06-22 02:00:00 21.2 18 Norte 29 Noroeste 0 -- -- 69
2020-06-22 01:00:00 21.3 14 Noroeste 30 Noroeste 0 -- -- 70
2020-06-22 00:00:00 21.3 16 Noroeste 35 Noroeste 0 -- -- 69
2020-06-21 23:00:00 21.5 21 Noroeste 36 Noroeste 0 -- -- 69
2020-06-21 22:00:00 21.7 15 Norte 35 Noroeste 0 -- -- 69
2020-06-21 21:00:00 21.9 14 Noroeste 38 Noroeste 0 -- -- 68
2020-06-21 20:00:00 22.5 14 Noroeste 38 Oeste 0 -- -- 67
2020-06-21 19:00:00 23.6 18 Noroeste 34 Oeste 0 -- -- 65
2020-06-21 18:00:00 23.6 15 Noroeste 34 Noroeste 0 -- -- 65
2020-06-21 17:00:00 23.3 18 Norte 32 Norte 0 -- -- 64
2020-06-21 16:00:00 23.3 18 Norte 35 Norte 0 -- -- 64
2020-06-21 15:00:00 23.2 19 Norte 37 Norte 0 -- -- 62
2020-06-21 14:00:00 23.2 15 Norte 31 Norte 0 -- -- 63
2020-06-21 13:00:00 23.1 17 Norte 31 Norte 0 -- -- 63
2020-06-21 12:00:00 22.7 14 Norte 28 Norte 0 -- -- 64
2020-06-21 11:00:00 22.1 12 Norte 27 Norte 0 -- -- 66
2020-06-21 10:00:00 21.5 15 Norte 28 Norte 0 -- -- 68
2020-06-21 09:00:00 21.4 16 Noroeste 31 Norte 0 -- -- 67
2020-06-21 08:00:00 21.3 15 Noroeste 28 Noroeste 0 -- -- 68
2020-06-21 07:00:00 21.3 14 Noroeste 27 Noroeste 0 -- -- 68
2020-06-21 06:00:00 21.2 15 Noroeste 27 Norte 0 -- -- 68
2020-06-21 05:00:00 21.2 18 Norte 30 Norte 0 -- -- 68
2020-06-21 04:00:00 21.1 17 Noroeste 28 Norte 0 -- -- 64
2020-06-21 03:00:00 21.4 12 Noroeste 27 Norte 0 -- -- 64
2020-06-21 02:00:00 21.6 12 Norte 33 Norte 0 -- -- 63
2020-06-21 01:00:00 21.5 14 Norte 33 Norte 0 -- -- 63
2020-06-21 00:00:00 21.6 17 Norte 30 Norte 0 -- -- 63
2020-06-20 23:00:00 21.8 17 Noroeste 30 Norte 0 -- -- 64
2020-06-20 22:00:00 21.8 16 Norte 31 Norte 0 -- -- 68
2020-06-20 21:00:00 21.7 16 Norte 32 Norte 0 -- -- 69
2020-06-20 20:00:00 22 17 Norte 30 Norte 0 -- -- 68
2020-06-20 19:00:00 22.6 17 Norte 32 Norte 0 -- -- 66
2020-06-20 18:00:00 22.3 19 Norte 32 Norte 0 -- -- 64
2020-06-20 17:00:00 22.7 17 Norte 35 Nordeste 0 -- -- 63
2020-06-20 16:00:00 23 13 Norte 33 Norte 0 -- -- 59
2020-06-20 15:00:00 22.4 21 Norte 36 Norte 0 -- -- 61
2020-06-20 14:00:00 22.7 17 Norte 31 Noroeste 0 -- -- 63
2020-06-20 13:00:00 23 19 Norte 36 Norte 0 -- -- 55
2020-06-20 12:00:00 22.5 19 Norte 33 Nordeste 0 -- -- 58
2020-06-20 11:00:00 23.7 16 Norte 32 Norte 0 -- -- 57
2020-06-20 10:00:00 22.1 19 Norte 31 Norte 0 -- -- 64
2020-06-20 09:00:00 21.4 13 Norte 26 Norte 0 -- -- 71
2020-06-20 08:00:00 21.6 13 Norte 24 Norte 0 -- -- 67
2020-06-20 07:00:00 21.4 12 Norte 26 Norte 0 -- -- 70
2020-06-20 06:00:00 21.3 10 Noroeste 23 Norte 0 -- -- 72
2020-06-20 05:00:00 21.7 13 Norte 24 Norte 0 -- -- 66
2020-06-20 04:00:00 21.5 13 Norte 23 Norte 0 -- -- 70
2020-06-20 03:00:00 21.4 13 Norte 24 Norte 0 -- -- 70
2020-06-20 02:00:00 21.6 9 Norte 28 Norte 0 -- -- 70
2020-06-20 01:00:00 21.6 11 Norte 27 Noroeste 0 -- -- 72
2020-06-20 00:00:00 21.9 15 Norte 29 Norte 0 -- -- 70
2020-06-19 23:00:00 22 14 Norte 30 Norte 0 -- -- 70
2020-06-19 22:00:00 22.8 15 Norte 34 Norte 0 -- -- 69
2020-06-19 21:00:00 22.2 15 Norte 31 Norte 0 -- -- 67
2020-06-19 20:00:00 22.3 17 Norte 32 Norte 0 -- -- 66
2020-06-19 19:00:00 22.5 14 Norte 31 Norte 0 -- -- 67
2020-06-19 18:00:00 23 16 Norte 32 Norte 0 -- -- 66
2020-06-19 17:00:00 24.1 12 Norte 28 Norte 0 -- -- 61
2020-06-19 16:00:00 23.9 14 Norte 25 Norte 0 -- -- 62
2020-06-19 15:00:00 24.3 13 Nordeste 36 Nordeste 0 -- -- 59
2020-06-19 14:00:00 23.3 13 Nordeste 28 Nordeste 0 -- -- 64
2020-06-19 13:00:00 22.7 12 Norte 29 Norte 0 -- -- 70
2020-06-19 12:00:00 22.5 17 Nordeste 28 Nordeste 0 -- -- 69
2020-06-19 11:00:00 22.6 14 Norte 23 Norte 0 -- -- 68
2020-06-19 10:00:00 22.8 10 Norte 21 Norte 0 -- -- 67
2020-06-19 09:00:00 22.1 10 Norte 22 Nordeste 0 -- -- 69
2020-06-19 08:00:00 21.7 14 Norte 28 Norte 0 -- -- 72
2020-06-19 07:00:00 21.3 13 Norte 24 Nordeste 0 -- -- 75
2020-06-19 06:00:00 21 7 Norte 31 Nordeste 0.3 -- -- 80
2020-06-19 05:00:00 21.4 9 Norte 21 Norte 0 -- -- 74
2020-06-19 04:00:00 21.5 9 Norte 26 Norte 0 -- -- 75
2020-06-19 03:00:00 21.7 15 Norte 28 Nordeste 0 -- -- 74
2020-06-19 02:00:00 21.8 10 Norte 22 Noroeste 0 -- -- 75
2020-06-19 01:00:00 21.7 13 Noroeste 27 Noroeste 0 -- -- 76
2020-06-19 00:00:00 21.7 18 Noroeste 31 Noroeste 0 -- -- 78
2020-06-18 23:00:00 21.6 17 Noroeste 30 Noroeste 0 -- -- 75
2020-06-18 22:00:00 21.5 21 Noroeste 40 Noroeste 0 -- -- 72
2020-06-18 21:00:00 21.6 20 Noroeste 38 Oeste 0 -- -- 71
2020-06-18 20:00:00 22.3 14 Noroeste 44 Noroeste 0 -- -- 69
2020-06-18 19:00:00 23.4 22 Noroeste 41 Noroeste 0 -- -- 66
2020-06-18 18:00:00 22.8 21 Noroeste 41 Noroeste 0 -- -- 67
2020-06-18 17:00:00 23 26 Noroeste 48 Noroeste 0 -- -- 68
2020-06-18 16:00:00 24.3 21 Noroeste 40 Oeste 0 -- -- 65
2020-06-18 15:00:00 23.2 24 Noroeste 51 Noroeste 0 -- -- 66
2020-06-18 14:00:00 22.8 28 Noroeste 49 Noroeste 0 -- -- 68
2020-06-18 13:00:00 23.4 22 Noroeste 42 Noroeste 0 -- -- 65
2020-06-18 12:00:00 22.4 23 Noroeste 44 Oeste 0 -- -- 67
2020-06-18 11:00:00 22.9 16 Noroeste 41 Noroeste 0 -- -- 66
2020-06-18 10:00:00 22.2 20 Noroeste 38 Noroeste 0 -- -- 68
2020-06-18 09:00:00 22.1 21 Noroeste 35 Norte 0 -- -- 69
2020-06-18 08:00:00 21.7 22 Noroeste 37 Noroeste 0 -- -- 74
2020-06-18 07:00:00 21.6 14 Noroeste 27 Noroeste 0 -- -- 74
2020-06-18 06:00:00 21.4 16 Noroeste 39 Noroeste 0 -- -- 78
2020-06-18 05:00:00 21.7 21 Noroeste 32 Noroeste 0 -- -- 77
2020-06-18 04:00:00 21.8 17 Noroeste 33 Noroeste 0 -- -- 78
2020-06-18 03:00:00 21.9 18 Noroeste 34 Noroeste 0 -- -- 75
2020-06-18 02:00:00 22.3 15 Noroeste 27 Oeste 0 -- -- 70
2020-06-18 01:00:00 22.4 8 Noroeste 25 Noroeste 0 -- -- 73
2020-06-18 00:00:00 22.4 12 Noroeste 20 Noroeste 0 -- -- 74
2020-06-17 23:00:00 22.6 9 Noroeste 18 Noroeste 0 -- -- 75
2020-06-17 22:00:00 23.3 9 Noroeste 15 Noroeste 0 -- -- 76
2020-06-17 21:00:00 22.6 10 Noroeste 18 Norte 0 -- -- 77
2020-06-17 20:00:00 22.6 12 Nordeste 18 Nordeste 0 -- -- 79
2020-06-17 19:00:00 23.5 8 Nordeste 15 Nordeste 0 -- -- 77
2020-06-17 18:00:00 23 12 Nordeste 20 Nordeste 0 -- -- 77
2020-06-17 17:00:00 23.4 12 Nordeste 20 Nordeste 0 -- -- 74
2020-06-17 16:00:00 24 11 Nordeste 24 Nordeste 0 -- -- 70
2020-06-17 15:00:00 23.5 11 Nordeste 23 Nordeste 0 -- -- 74
2020-06-17 14:00:00 23.5 12 Nordeste 26 Nordeste 0 -- -- 73
2020-06-17 13:00:00 23.8 11 Norte 26 Nordeste 0 -- -- 69
2020-06-17 12:00:00 25.1 6 Noroeste 22 Noroeste 0 -- -- 66
2020-06-17 11:00:00 24.3 9 Noroeste 32 Noroeste 0 -- -- 68
2020-06-17 10:00:00 23.3 13 Noroeste 25 Noroeste 0 -- -- 69
2020-06-17 09:00:00 23 7 Noroeste 13 Norte 0 -- -- 72
2020-06-17 08:00:00 22.4 5 Noroeste 13 Norte 0 -- -- 77
2020-06-17 07:00:00 22.4 5 Noroeste 19 Norte 0 -- -- 74
2020-06-17 06:00:00 22.7 8 Norte 24 Noroeste 0 -- -- 73
2020-06-17 05:00:00 22.2 12 Noroeste 38 Noroeste 0 -- -- 78
2020-06-17 04:00:00 22.1 18 Noroeste 31 Noroeste 0 -- -- 82
2020-06-17 03:00:00 22.3 17 Norte 43 Noroeste 0 -- -- 81
2020-06-17 02:00:00 24.9 23 Noroeste 46 Noroeste 0 -- -- 57
2020-06-17 01:00:00 22.5 27 Norte 37 Norte 0 -- -- 78
2020-06-17 00:00:00 23.1 21 Noroeste 34 Noroeste 0 -- -- 70
2020-06-16 23:00:00 22.9 20 Noroeste 29 Noroeste 0 -- -- 70
2020-06-16 22:00:00 24.2 15 Noroeste 31 Noroeste 0 -- -- 65
2020-06-16 21:00:00 23.9 18 Noroeste 29 Noroeste 0 -- -- 57
2020-06-16 20:00:00 24.5 17 Noroeste 30 Norte 0 -- -- 51
2020-06-16 19:00:00 26.1 20 Noroeste 33 Noroeste 0 -- -- 49
2020-06-16 18:00:00 24.1 21 Noroeste 33 Noroeste 0 -- -- 62
2020-06-16 17:00:00 25.3 14 Noroeste 26 Norte 0 -- -- 66
2020-06-16 16:00:00 23.4 12 Norte 20 Norte 0 -- -- 72
2020-06-16 15:00:00 25.9 8 Nordeste 19 Nordeste 0 -- -- 65
2020-06-16 14:00:00 26.4 5 Nordeste 12 Nordeste 0 -- -- 61
2020-06-16 13:00:00 26 5 Nordeste 10 Nordeste 0 -- -- 61
2020-06-16 12:00:00 26.9 3 Nordeste 11 Nordeste 0 -- -- 56
2020-06-16 11:00:00 26.8 2 Nordeste 11 Nordeste 0 -- -- 67
2020-06-16 10:00:00 24.5 5 Norte 10 Nordeste 0 -- -- 70
2020-06-16 09:00:00 22.4 5 Norte 10 Noroeste 0 -- -- 79
2020-06-16 08:00:00 22.3 4 Nordeste 6 Nordeste 0 -- -- 80
2020-06-16 07:00:00 22.3 2 Norte 15 Noroeste 0 -- -- 78
2020-06-16 06:00:00 21.9 8 Noroeste 13 Noroeste 0 -- -- 80
2020-06-16 05:00:00 21.6 0 Calma 4 Oeste 0 -- -- 83
2020-06-16 04:00:00 22.3 3 Nordeste 15 Norte 0 -- -- 80
2020-06-16 03:00:00 22.3 7 Norte 16 Norte 0 -- -- 80
2020-06-16 02:00:00 22.1 12 Norte 18 Norte 0 -- -- 80
2020-06-16 01:00:00 23.3 10 Norte 17 Norte 0 -- -- 71
2020-06-16 00:00:00 23.9 10 Noroeste 18 Noroeste 0 -- -- 69
2020-06-15 23:00:00 23 14 Noroeste 27 Oeste 0 -- -- 77
2020-06-15 22:00:00 22.9 10 Norte 18 Norte 0 -- -- 78
2020-06-15 21:00:00 23.6 11 Norte 21 Norte 0 -- -- 75
2020-06-15 20:00:00 25.3 12 Noroeste 34 Noroeste 0 -- -- 58
2020-06-15 19:00:00 25.9 21 Noroeste 38 Noroeste 0 -- -- 53
2020-06-15 18:00:00 27 18 Noroeste 34 Noroeste 0 -- -- 54
2020-06-15 17:00:00 24.4 13 Norte 24 Norte 0 -- -- 69
2020-06-15 16:00:00 24.4 15 Norte 29 Nordeste 0 -- -- 69
2020-06-15 15:00:00 23.6 17 Norte 25 Norte 0 -- -- 75
2020-06-15 14:00:00 24.3 16 Norte 28 Noroeste 0 -- -- 68
2020-06-15 13:00:00 23.6 20 Noroeste 30 Norte 0 -- -- 72
2020-06-15 12:00:00 25.5 12 Noroeste 27 Noroeste 0 -- -- 63
2020-06-15 11:00:00 23.5 10 Norte 21 Norte 0 -- -- 67
2020-06-15 10:00:00 24.9 5 Norte 12 Nordeste 0 -- -- 53
2020-06-15 09:00:00 24.6 6 Sudeste 22 Sur 0 -- -- 56
2020-06-15 08:00:00 22.6 12 Sur 20 Sur 0 -- -- 62
2020-06-15 07:00:00 22 8 Sur 19 Sur 0 -- -- 66
2020-06-15 06:00:00 21.8 10 Sur 30 Sur 0 -- -- 72
2020-06-15 05:00:00 21.3 20 Sur 27 Sur 0 -- -- 79
2020-06-15 04:00:00 21.4 19 Sur 26 Sur 0 -- -- 79
2020-06-15 03:00:00 21.2 13 Sur 20 Sur 0 -- -- 81
2020-06-15 02:00:00 21.4 4 Sudeste 20 Sudeste 0.2 -- -- 83
2020-06-15 01:00:00 21.5 9 Norte 17 Noroeste 0.1 -- -- 81
2020-06-15 00:00:00 21.9 8 Norte 15 Norte 0 -- -- 81
2020-06-14 23:00:00 21.5 5 Norte 19 Norte 0.2 -- -- 80
2020-06-14 22:00:00 21.7 9 Norte 24 Norte 0 -- -- 79
2020-06-14 21:00:00 21.9 13 Norte 26 Noroeste 0 -- -- 72
2020-06-14 20:00:00 22.7 11 Norte 23 Nordeste 0 -- -- 71
2020-06-14 19:00:00 21.9 14 Norte 23 Norte 0 -- -- 69
2020-06-14 18:00:00 22.1 9 Norte 17 Norte 0 -- -- 67
2020-06-14 17:00:00 22.9 6 Nordeste 13 Este 0 -- -- 63
2020-06-14 16:00:00 25.8 0 Calma 15 Este 0 -- -- 56
2020-06-14 15:00:00 26 6 Este 18 Sur 0 -- -- 57
2020-06-14 14:00:00 25.7 4 Sudeste 14 Este 0 -- -- 56
2020-06-14 13:00:00 26 7 Este 13 Este 0 -- -- 56
2020-06-14 12:00:00 26.8 3 Sudeste 13 Este 0 -- -- 55
2020-06-14 11:00:00 26.2 0 Calma 11 Sudeste 0 -- -- 58
2020-06-14 10:00:00 23.7 6 Este 11 Este 0 -- -- 64
2020-06-14 09:00:00 22.8 5 Este 11 Este 0 -- -- 66
2020-06-14 08:00:00 21.6 3 Este 9 Este 0 -- -- 70
2020-06-14 07:00:00 20.2 0 Calma 8 Oeste 0 -- -- 72
2020-06-14 06:00:00 20.5 6 Oeste 9 Oeste 0 -- -- 72
2020-06-14 05:00:00 20.5 0 Calma 8 Oeste 0 -- -- 70
2020-06-14 04:00:00 20.6 0 Calma 14 Oeste 0 -- -- 69
2020-06-14 03:00:00 20.4 9 Oeste 15 Noroeste 0 -- -- 68
2020-06-14 02:00:00 20.9 7 Oeste 14 Noroeste 0 -- -- 68
2020-06-14 01:00:00 21 9 Noroeste 13 Noroeste 0 -- -- 67
2020-06-14 00:00:00 21.2 6 Noroeste 15 Norte 0 -- -- 67
2020-06-13 23:00:00 21.4 9 Norte 15 Noroeste 0 -- -- 67
2020-06-13 22:00:00 21.4 9 Norte 17 Norte 0 -- -- 67
2020-06-13 21:00:00 23 6 Norte 18 Nordeste 0 -- -- 65
2020-06-13 20:00:00 23.6 7 Nordeste 23 Nordeste 0 -- -- 61
2020-06-13 19:00:00 23.1 10 Nordeste 22 Nordeste 0 -- -- 63
2020-06-13 18:00:00 24.6 7 Nordeste 22 Nordeste 0 -- -- 57
2020-06-13 17:00:00 23.6 8 Nordeste 15 Nordeste 0 -- -- 60
2020-06-13 16:00:00 24.3 8 Nordeste 15 Nordeste 0 -- -- 60
2020-06-13 15:00:00 22.7 10 Este 15 Nordeste 0 -- -- 64
2020-06-13 14:00:00 22.9 8 Este 16 Nordeste 0 -- -- 61
2020-06-13 13:00:00 23 8 Nordeste 14 Nordeste 0 -- -- 59
2020-06-13 12:00:00 24.4 5 Este 14 Nordeste 0 -- -- 57
2020-06-13 11:00:00 23.1 4 Nordeste 12 Este 0 -- -- 59
2020-06-13 10:00:00 25 2 Nordeste 13 Nordeste 0 -- -- 57
2020-06-13 09:00:00 22 4 Nordeste 14 Noroeste 0 -- -- 62
2020-06-13 08:00:00 20.7 8 Noroeste 13 Noroeste 0 -- -- 68
2020-06-13 07:00:00 19.9 6 Oeste 11 Noroeste 0 -- -- 68
2020-06-13 06:00:00 20.2 7 Norte 14 Nordeste 0 -- -- 68
2020-06-13 05:00:00 20.4 0 Calma 13 Nordeste 0 -- -- 68
2020-06-13 04:00:00 20.4 7 Nordeste 16 Nordeste 0 -- -- 68
2020-06-13 03:00:00 20.4 6 Nordeste 14 Nordeste 0 -- -- 67
2020-06-13 02:00:00 20.4 8 Norte 17 Norte 0 -- -- 67
2020-06-13 01:00:00 20.7 3 Norte 21 Norte 0 -- -- 64
2020-06-13 00:00:00 20.8 4 Nordeste 21 Norte 0 -- -- 67
2020-06-12 23:00:00 20.5 17 Norte 27 Noroeste 0 -- -- 64
2020-06-12 22:00:00 22.4 11 Norte 28 Noroeste 0 -- -- 61
2020-06-12 21:00:00 21 17 Noroeste 34 Noroeste 0 -- -- 59
2020-06-12 20:00:00 20.9 18 Noroeste 34 Noroeste 0 -- -- 61
2020-06-12 19:00:00 22.5 16 Noroeste 27 Oeste 0 -- -- 58
2020-06-12 18:00:00 21.8 13 Noroeste 26 Noroeste 0 -- -- 58
2020-06-12 17:00:00 22.2 11 Noroeste 26 Norte 0 -- -- 53
2020-06-12 16:00:00 21.4 16 Noroeste 35 Norte 0 -- -- 57
2020-06-12 15:00:00 20.6 23 Norte 37 Noroeste 0 -- -- 57
2020-06-12 14:00:00 21.4 18 Noroeste 31 Noroeste 0 -- -- 59
2020-06-12 13:00:00 21.7 16 Noroeste 32 Noroeste 0 -- -- 59
2020-06-12 12:00:00 23.3 13 Noroeste 36 Noroeste 0 -- -- 55
2020-06-12 11:00:00 22.5 18 Norte 32 Noroeste 0 -- -- 60
2020-06-12 10:00:00 20.7 18 Noroeste 31 Noroeste 0 -- -- 62
2020-06-12 09:00:00 20.7 18 Noroeste 32 Noroeste 0 -- -- 62
2020-06-12 08:00:00 20 13 Noroeste 23 Noroeste 0 -- -- 64
2020-06-12 07:00:00 19.8 14 Noroeste 25 Noroeste 0 -- -- 65
2020-06-12 06:00:00 20.1 12 Noroeste 28 Noroeste 0 -- -- 66
2020-06-12 05:00:00 19.9 18 Noroeste 29 Noroeste 0 -- -- 65
2020-06-12 04:00:00 20.1 10 Norte 18 Norte 0 -- -- 64
2020-06-12 03:00:00 20.2 10 Noroeste 23 Noroeste 0 -- -- 65
2020-06-12 02:00:00 20.3 17 Norte 23 Noroeste 0 -- -- 66
2020-06-12 01:00:00 20.6 7 Norte 19 Noroeste 0 -- -- 66
2020-06-12 00:00:00 20.4 13 Norte 17 Noroeste 0 -- -- 67
2020-06-11 23:00:00 20.6 8 Noroeste 23 Noroeste 0 -- -- 66
2020-06-11 22:00:00 20.5 9 Noroeste 22 Oeste 0 -- -- 66
2020-06-11 21:00:00 21.9 12 Noroeste 29 Noroeste 0 -- -- 64
2020-06-11 20:00:00 20.6 15 Noroeste 26 Norte 0 -- -- 65
2020-06-11 19:00:00 20.8 13 Norte 18 Norte 0 -- -- 67
2020-06-11 18:00:00 21.7 7 Norte 19 Norte 0 -- -- 65
2020-06-11 17:00:00 21.3 9 Norte 22 Norte 0 -- -- 64
2020-06-11 16:00:00 21.3 6 Norte 18 Nordeste 0 -- -- 64
2020-06-11 15:00:00 21 11 Norte 20 Norte 0 -- -- 64
2020-06-11 14:00:00 21.5 10 Nordeste 19 Nordeste 0 -- -- 64
2020-06-11 13:00:00 21.9 11 Nordeste 20 Nordeste 0 -- -- 63
2020-06-11 12:00:00 21.2 11 Nordeste 20 Norte 0 -- -- 64
2020-06-11 11:00:00 21.3 9 Norte 18 Norte 0 -- -- 66
2020-06-11 10:00:00 20.9 10 Nordeste 22 Nordeste 0 -- -- 67
2020-06-11 09:00:00 20.7 10 Nordeste 19 Nordeste 0 -- -- 68
2020-06-11 08:00:00 21.4 9 Norte 20 Nordeste 0 -- -- 70
2020-06-11 07:00:00 20.6 11 Nordeste 24 Nordeste 0 -- -- 69
2020-06-11 06:00:00 20.6 11 Nordeste 24 Nordeste 0 -- -- 70
2020-06-11 05:00:00 20.6 9 Nordeste 21 Nordeste 0 -- -- 69
2020-06-11 04:00:00 20.5 9 Nordeste 23 Norte 0 -- -- 70
2020-06-11 03:00:00 20.7 11 Nordeste 23 Nordeste 0 -- -- 70
2020-06-11 02:00:00 20.7 13 Nordeste 23 Nordeste 0 -- -- 69
2020-06-11 01:00:00 20.8 11 Nordeste 24 Norte 0 -- -- 69
2020-06-11 00:00:00 20.8 11 Nordeste 22 Norte 0 -- -- 69
2020-06-10 23:00:00 21 9 Norte 22 Norte 0 -- -- 69
2020-06-10 22:00:00 20.8 13 Norte 23 Norte 0 -- -- 69
2020-06-10 21:00:00 21.2 12 Norte 23 Norte 0 -- -- 66
2020-06-10 20:00:00 21.5 10 Norte 24 Norte 0 -- -- 64
2020-06-10 19:00:00 22.8 13 Norte 25 Nordeste 0 -- -- 63
2020-06-10 18:00:00 24 10 Norte 21 Norte 0 -- -- 61
2020-06-10 17:00:00 22.1 13 Nordeste 22 Norte 0 -- -- 62
2020-06-10 16:00:00 23.9 12 Nordeste 25 Nordeste 0 -- -- 57
2020-06-10 15:00:00 22.8 15 Nordeste 29 Nordeste 0 -- -- 57
2020-06-10 14:00:00 22.7 10 Nordeste 29 Nordeste 0 -- -- 56
2020-06-10 13:00:00 22.2 13 Nordeste 26 Nordeste 0 -- -- 57
2020-06-10 12:00:00 22 12 Nordeste 24 Nordeste 0 -- -- 55
2020-06-10 11:00:00 21.7 12 Nordeste 26 Nordeste 0 -- -- 59
2020-06-10 10:00:00 22.5 8 Nordeste 23 Nordeste 0 -- -- 56
2020-06-10 09:00:00 22.6 12 Nordeste 26 Norte 0 -- -- 61
2020-06-10 08:00:00 20.7 13 Norte 26 Nordeste 0 -- -- 66
2020-06-10 07:00:00 20.7 8 Norte 23 Norte 0 -- -- 67
2020-06-10 06:00:00 20.7 10 Norte 23 Norte 0 -- -- 65
2020-06-10 05:00:00 20.8 10 Norte 19 Norte 0 -- -- 67
2020-06-10 04:00:00 20.7 8 Norte 24 Nordeste 0 -- -- 68
2020-06-10 03:00:00 20.8 11 Nordeste 21 Norte 0 -- -- 69
2020-06-10 02:00:00 20.8 12 Nordeste 28 Norte 0 -- -- 69
2020-06-10 01:00:00 20.8 17 Norte 29 Nordeste 0 -- -- 69
2020-06-10 00:00:00 21.1 15 Norte 28 Nordeste 0 -- -- 69
2020-06-09 23:00:00 21.5 17 Nordeste 30 Nordeste 0 -- -- 70
2020-06-09 22:00:00 21.3 21 Nordeste 30 Nordeste 0 -- -- 69
2020-06-09 21:00:00 21.5 16 Nordeste 30 Nordeste 0 -- -- 71
2020-06-09 20:00:00 22.1 13 Nordeste 24 Nordeste 0 -- -- 69
2020-06-09 19:00:00 22.8 10 Nordeste 23 Norte 0 -- -- 64
2020-06-09 18:00:00 22.4 12 Norte 22 Nordeste 0 -- -- 66
2020-06-09 17:00:00 23.9 8 Norte 25 Nordeste 0 -- -- 65
2020-06-09 16:00:00 23.6 8 Norte 25 Nordeste 0 -- -- 63
2020-06-09 15:00:00 23.7 15 Nordeste 32 Nordeste 0 -- -- 63
2020-06-09 14:00:00 23.2 19 Nordeste 28 Nordeste 0 -- -- 65
2020-06-09 13:00:00 25 14 Nordeste 28 Nordeste 0 -- -- 63
2020-06-09 12:00:00 22.7 19 Nordeste 32 Nordeste 0 -- -- 66
2020-06-09 11:00:00 22.6 15 Nordeste 31 Nordeste 0 -- -- 65
2020-06-09 10:00:00 22.4 12 Nordeste 28 Nordeste 0 -- -- 66
2020-06-09 09:00:00 21.5 14 Norte 30 Nordeste 0 -- -- 70
2020-06-09 08:00:00 21 11 Norte 29 Norte 0 -- -- 73
2020-06-09 07:00:00 21.7 18 Norte 32 Nordeste 0 -- -- 73
2020-06-09 06:00:00 21 15 Norte 27 Norte 0 -- -- 77
2020-06-09 05:00:00 21.1 13 Nordeste 30 Norte 0 -- -- 78
2020-06-09 04:00:00 21.3 14 Nordeste 27 Nordeste 0 -- -- 77
2020-06-09 03:00:00 21.1 12 Norte 25 Este 0 -- -- 78
2020-06-09 02:00:00 21.6 12 Nordeste 31 Nordeste 0 -- -- 77
2020-06-09 01:00:00 21.3 17 Nordeste 30 Nordeste 0 -- -- 77
2020-06-09 00:00:00 21.5 14 Norte 23 Nordeste 0 -- -- 77